sensor_id;sensor_type;location;lat;lon;timestamp;temperature;humidity
15178;DHT22;7689;53.612;-2.416;2022-07-29T00:00:37;16.00;99.90
15178;DHT22;7689;53.612;-2.416;2022-07-29T00:03:02;16.10;99.90
15178;DHT22;7689;53.612;-2.416;2022-07-29T00:05:28;16.10;99.90
15178;DHT22;7689;53.612;-2.416;2022-07-29T00:07:54;16.20;99.90
15178;DHT22;7689;53.612;-2.416;2022-07-29T00:10:20;16.20;99.90
15178;DHT22;7689;53.612;-2.416;2022-07-29T00:12:46;16.10;99.90
15178;DHT22;7689;53.612;-2.416;2022-07-29T00:15:11;15.50;99.90
15178;DHT22;7689;53.612;-2.416;2022-07-29T00:17:37;16.10;99.90
15178;DHT22;7689;53.612;-2.416;2022-07-29T00:20:03;16.00;99.90
15178;DHT22;7689;53.612;-2.416;2022-07-29T00:22:29;16.00;99.90
15178;DHT22;7689;53.612;-2.416;2022-07-29T00:24:55;16.00;99.90
15178;DHT22;7689;53.612;-2.416;2022-07-29T00:27:20;15.30;99.90
15178;DHT22;7689;53.612;-2.416;2022-07-29T00:29:47;15.90;99.90
15178;DHT22;7689;53.612;-2.416;2022-07-29T00:32:13;15.90;99.90
15178;DHT22;7689;53.612;-2.416;2022-07-29T00:34:39;15.80;99.90
15178;DHT22;7689;53.612;-2.416;2022-07-29T00:37:23;15.80;99.90
15178;DHT22;7689;53.612;-2.416;2022-07-29T00:39:49;15.70;99.90
15178;DHT22;7689;53.612;-2.416;2022-07-29T00:42:14;15.70;99.90
15178;DHT22;7689;53.612;-2.416;2022-07-29T00:44:42;15.70;99.90
15178;DHT22;7689;53.612;-2.416;2022-07-29T00:47:09;15.70;99.90
15178;DHT22;7689;53.612;-2.416;2022-07-29T00:49:35;15.70;99.90
15178;DHT22;7689;53.612;-2.416;2022-07-29T00:52:02;15.80;99.90
15178;DHT22;7689;53.612;-2.416;2022-07-29T00:54:28;15.70;99.90
15178;DHT22;7689;53.612;-2.416;2022-07-29T00:56:56;15.70;99.90
15178;DHT22;7689;53.612;-2.416;2022-07-29T00:59:23;15.80;99.90
15178;DHT22;7689;53.612;-2.416;2022-07-29T01:01:48;15.80;99.90
15178;DHT22;7689;53.612;-2.416;2022-07-29T01:04:14;15.80;99.90
15178;DHT22;7689;53.612;-2.416;2022-07-29T01:06:40;15.90;99.90
15178;DHT22;7689;53.612;-2.416;2022-07-29T01:09:06;15.90;99.90
15178;DHT22;7689;53.612;-2.416;2022-07-29T01:11:33;15.90;99.90
15178;DHT22;7689;53.612;-2.416;2022-07-29T01:14:00;16.00;99.90
15178;DHT22;7689;53.612;-2.416;2022-07-29T01:16:31;16.00;99.90
15178;DHT22;7689;53.612;-2.416;2022-07-29T01:19:17;16.00;99.90
15178;DHT22;7689;53.612;-2.416;2022-07-29T01:21:54;16.00;99.90
15178;DHT22;7689;53.612;-2.416;2022-07-29T01:24:39;16.00;99.90
15178;DHT22;7689;53.612;-2.416;2022-07-29T01:29:41;16.00;99.90
15178;DHT22;7689;53.612;-2.416;2022-07-29T01:32:12;15.90;99.90
15178;DHT22;7689;53.612;-2.416;2022-07-29T01:34:48;15.90;99.90
15178;DHT22;7689;53.612;-2.416;2022-07-29T01:37:22;15.90;99.90
15178;DHT22;7689;53.612;-2.416;2022-07-29T01:39:52;16.00;99.90
15178;DHT22;7689;53.612;-2.416;2022-07-29T01:42:40;16.00;99.90
15178;DHT22;7689;53.612;-2.416;2022-07-29T01:45:18;16.00;99.90
15178;DHT22;7689;53.612;-2.416;2022-07-29T01:50:33;15.90;99.90
15178;DHT22;7689;53.612;-2.416;2022-07-29T01:53:02;15.80;99.90
15178;DHT22;7689;53.612;-2.416;2022-07-29T01:55:32;15.80;99.90
15178;DHT22;7689;53.612;-2.416;2022-07-29T01:58:00;15.90;99.90
15178;DHT22;7689;53.612;-2.416;2022-07-29T02:00:30;15.90;99.90
15178;DHT22;7689;53.612;-2.416;2022-07-29T02:02:59;15.80;99.90
15178;DHT22;7689;53.612;-2.416;2022-07-29T02:05:27;15.90;99.90
15178;DHT22;7689;53.612;-2.416;2022-07-29T02:07:54;16.00;99.90
15178;DHT22;7689;53.612;-2.416;2022-07-29T02:10:23;16.00;99.90
15178;DHT22;7689;53.612;-2.416;2022-07-29T02:12:50;16.00;99.90
15178;DHT22;7689;53.612;-2.416;2022-07-29T02:15:17;16.00;99.90
15178;DHT22;7689;53.612;-2.416;2022-07-29T02:17:51;15.90;99.90
15178;DHT22;7689;53.612;-2.416;2022-07-29T02:20:19;15.90;99.90
15178;DHT22;7689;53.612;-2.416;2022-07-29T02:22:45;15.90;99.90
15178;DHT22;7689;53.612;-2.416;2022-07-29T02:25:12;15.90;99.90
15178;DHT22;7689;53.612;-2.416;2022-07-29T02:27:39;15.90;99.90
15178;DHT22;7689;53.612;-2.416;2022-07-29T02:30:07;15.90;99.90
15178;DHT22;7689;53.612;-2.416;2022-07-29T02:32:35;15.90;99.90
15178;DHT22;7689;53.612;-2.416;2022-07-29T02:35:02;15.90;99.90
15178;DHT22;7689;53.612;-2.416;2022-07-29T02:37:29;15.80;99.90
15178;DHT22;7689;53.612;-2.416;2022-07-29T02:39:57;15.80;99.90
15178;DHT22;7689;53.612;-2.416;2022-07-29T02:42:24;15.80;99.90
15178;DHT22;7689;53.612;-2.416;2022-07-29T02:44:52;15.90;99.90
15178;DHT22;7689;53.612;-2.416;2022-07-29T02:47:30;15.90;99.90
15178;DHT22;7689;53.612;-2.416;2022-07-29T02:50:11;15.90;99.90
15178;DHT22;7689;53.612;-2.416;2022-07-29T02:52:41;15.90;99.90
15178;DHT22;7689;53.612;-2.416;2022-07-29T02:55:19;15.90;99.90
15178;DHT22;7689;53.612;-2.416;2022-07-29T02:57:51;15.80;99.90
15178;DHT22;7689;53.612;-2.416;2022-07-29T03:00:21;15.90;99.90
15178;DHT22;7689;53.612;-2.416;2022-07-29T03:02:52;15.90;99.90
15178;DHT22;7689;53.612;-2.416;2022-07-29T03:05:20;15.80;99.90
15178;DHT22;7689;53.612;-2.416;2022-07-29T03:07:51;15.90;99.90
15178;DHT22;7689;53.612;-2.416;2022-07-29T03:10:18;15.80;99.90
15178;DHT22;7689;53.612;-2.416;2022-07-29T03:12:44;15.80;99.90
15178;DHT22;7689;53.612;-2.416;2022-07-29T03:15:11;15.60;99.90
15178;DHT22;7689;53.612;-2.416;2022-07-29T03:17:37;15.50;99.90
15178;DHT22;7689;53.612;-2.416;2022-07-29T03:20:07;15.50;99.90
15178;DHT22;7689;53.612;-2.416;2022-07-29T03:22:39;15.40;99.90
15178;DHT22;7689;53.612;-2.416;2022-07-29T03:25:10;15.40;99.90
15178;DHT22;7689;53.612;-2.416;2022-07-29T03:27:35;15.30;99.90
15178;DHT22;7689;53.612;-2.416;2022-07-29T03:30:01;15.30;99.90
15178;DHT22;7689;53.612;-2.416;2022-07-29T03:32:27;15.30;99.90
15178;DHT22;7689;53.612;-2.416;2022-07-29T03:34:52;15.20;99.90
15178;DHT22;7689;53.612;-2.416;2022-07-29T03:37:18;15.20;99.90
15178;DHT22;7689;53.612;-2.416;2022-07-29T03:39:44;15.10;99.90
15178;DHT22;7689;53.612;-2.416;2022-07-29T03:42:13;15.10;99.90
15178;DHT22;7689;53.612;-2.416;2022-07-29T03:44:42;15.00;99.90
15178;DHT22;7689;53.612;-2.416;2022-07-29T03:47:09;15.00;99.90
15178;DHT22;7689;53.612;-2.416;2022-07-29T03:49:37;15.00;99.90
15178;DHT22;7689;53.612;-2.416;2022-07-29T03:52:04;14.90;99.90
15178;DHT22;7689;53.612;-2.416;2022-07-29T03:54:30;14.90;99.90
15178;DHT22;7689;53.612;-2.416;2022-07-29T03:56:59;14.70;99.90
15178;DHT22;7689;53.612;-2.416;2022-07-29T03:59:27;14.70;99.90
15178;DHT22;7689;53.612;-2.416;2022-07-29T04:01:53;14.60;99.90
15178;DHT22;7689;53.612;-2.416;2022-07-29T04:04:21;14.60;99.90
15178;DHT22;7689;53.612;-2.416;2022-07-29T04:06:47;14.60;99.90
15178;DHT22;7689;53.612;-2.416;2022-07-29T04:09:13;14.50;99.90
15178;DHT22;7689;53.612;-2.416;2022-07-29T04:11:40;14.40;99.90
15178;DHT22;7689;53.612;-2.416;2022-07-29T04:14:06;14.50;99.90
15178;DHT22;7689;53.612;-2.416;2022-07-29T04:16:32;14.50;99.90
15178;DHT22;7689;53.612;-2.416;2022-07-29T04:18:58;14.40;99.90
15178;DHT22;7689;53.612;-2.416;2022-07-29T04:21:23;14.50;99.90
15178;DHT22;7689;53.612;-2.416;2022-07-29T04:23:49;15.00;99.90
15178;DHT22;7689;53.612;-2.416;2022-07-29T04:26:16;14.50;99.90
15178;DHT22;7689;53.612;-2.416;2022-07-29T04:28:42;14.50;99.90
15178;DHT22;7689;53.612;-2.416;2022-07-29T04:31:09;14.60;99.90
15178;DHT22;7689;53.612;-2.416;2022-07-29T04:33:34;14.50;99.90
15178;DHT22;7689;53.612;-2.416;2022-07-29T04:36:00;14.50;99.90
15178;DHT22;7689;53.612;-2.416;2022-07-29T04:38:25;14.50;99.90
15178;DHT22;7689;53.612;-2.416;2022-07-29T04:40:51;14.40;99.90
15178;DHT22;7689;53.612;-2.416;2022-07-29T04:43:17;14.40;99.90
15178;DHT22;7689;53.612;-2.416;2022-07-29T04:45:42;14.40;99.90
15178;DHT22;7689;53.612;-2.416;2022-07-29T04:50:34;14.30;99.90
15178;DHT22;7689;53.612;-2.416;2022-07-29T04:53:02;14.40;99.90
15178;DHT22;7689;53.612;-2.416;2022-07-29T04:55:28;14.40;99.90
15178;DHT22;7689;53.612;-2.416;2022-07-29T04:57:54;14.30;99.90
15178;DHT22;7689;53.612;-2.416;2022-07-29T05:00:19;14.40;99.90
15178;DHT22;7689;53.612;-2.416;2022-07-29T05:02:45;14.50;99.90
15178;DHT22;7689;53.612;-2.416;2022-07-29T05:05:11;14.50;99.90
15178;DHT22;7689;53.612;-2.416;2022-07-29T05:07:36;14.50;99.90
15178;DHT22;7689;53.612;-2.416;2022-07-29T05:10:03;14.40;99.90
15178;DHT22;7689;53.612;-2.416;2022-07-29T05:12:28;14.40;99.90
15178;DHT22;7689;53.612;-2.416;2022-07-29T05:14:54;14.40;99.90
15178;DHT22;7689;53.612;-2.416;2022-07-29T05:17:20;14.40;99.90
15178;DHT22;7689;53.612;-2.416;2022-07-29T05:19:46;14.50;99.90
15178;DHT22;7689;53.612;-2.416;2022-07-29T05:22:11;14.50;99.90
15178;DHT22;7689;53.612;-2.416;2022-07-29T05:24:37;14.50;99.90
15178;DHT22;7689;53.612;-2.416;2022-07-29T05:27:03;14.50;99.90
15178;DHT22;7689;53.612;-2.416;2022-07-29T05:29:28;14.60;99.90
15178;DHT22;7689;53.612;-2.416;2022-07-29T05:31:54;14.60;99.90
15178;DHT22;7689;53.612;-2.416;2022-07-29T05:34:20;14.60;99.90
15178;DHT22;7689;53.612;-2.416;2022-07-29T05:36:45;14.60;99.90
15178;DHT22;7689;53.612;-2.416;2022-07-29T05:39:11;14.70;99.90
15178;DHT22;7689;53.612;-2.416;2022-07-29T05:41:38;14.70;99.90
15178;DHT22;7689;53.612;-2.416;2022-07-29T05:44:04;14.70;99.90
15178;DHT22;7689;53.612;-2.416;2022-07-29T05:46:29;14.80;99.90
15178;DHT22;7689;53.612;-2.416;2022-07-29T05:48:55;14.70;99.90
15178;DHT22;7689;53.612;-2.416;2022-07-29T05:51:21;14.80;99.90
15178;DHT22;7689;53.612;-2.416;2022-07-29T05:53:47;14.80;99.90
15178;DHT22;7689;53.612;-2.416;2022-07-29T05:56:13;14.80;99.90
15178;DHT22;7689;53.612;-2.416;2022-07-29T05:58:38;14.80;99.90
15178;DHT22;7689;53.612;-2.416;2022-07-29T06:01:04;14.80;99.90
15178;DHT22;7689;53.612;-2.416;2022-07-29T06:03:30;14.80;99.90
15178;DHT22;7689;53.612;-2.416;2022-07-29T06:05:55;14.70;99.90
15178;DHT22;7689;53.612;-2.416;2022-07-29T06:08:21;14.70;99.90
15178;DHT22;7689;53.612;-2.416;2022-07-29T06:10:47;14.70;99.90
15178;DHT22;7689;53.612;-2.416;2022-07-29T06:13:13;14.80;99.90
15178;DHT22;7689;53.612;-2.416;2022-07-29T06:15:41;14.80;99.90
15178;DHT22;7689;53.612;-2.416;2022-07-29T06:18:07;14.80;99.90
15178;DHT22;7689;53.612;-2.416;2022-07-29T06:20:34;14.80;99.90
15178;DHT22;7689;53.612;-2.416;2022-07-29T06:23:00;14.90;99.90
15178;DHT22;7689;53.612;-2.416;2022-07-29T06:25:27;14.90;99.90
15178;DHT22;7689;53.612;-2.416;2022-07-29T06:27:54;16.50;99.90
15178;DHT22;7689;53.612;-2.416;2022-07-29T06:30:20;14.90;99.90
15178;DHT22;7689;53.612;-2.416;2022-07-29T06:32:45;15.40;99.90
15178;DHT22;7689;53.612;-2.416;2022-07-29T06:35:12;14.90;99.90
15178;DHT22;7689;53.612;-2.416;2022-07-29T06:37:37;14.90;99.90
15178;DHT22;7689;53.612;-2.416;2022-07-29T06:40:04;14.80;99.90
15178;DHT22;7689;53.612;-2.416;2022-07-29T06:42:48;14.90;99.90
15178;DHT22;7689;53.612;-2.416;2022-07-29T06:45:13;14.80;99.90
15178;DHT22;7689;53.612;-2.416;2022-07-29T06:47:39;14.80;99.90
15178;DHT22;7689;53.612;-2.416;2022-07-29T06:50:05;14.70;99.90
15178;DHT22;7689;53.612;-2.416;2022-07-29T06:52:31;14.70;99.90
15178;DHT22;7689;53.612;-2.416;2022-07-29T06:54:57;14.70;99.90
15178;DHT22;7689;53.612;-2.416;2022-07-29T06:57:22;14.60;99.90
15178;DHT22;7689;53.612;-2.416;2022-07-29T06:59:48;14.70;99.90
15178;DHT22;7689;53.612;-2.416;2022-07-29T07:02:14;14.70;99.90
15178;DHT22;7689;53.612;-2.416;2022-07-29T07:04:39;14.70;99.90
15178;DHT22;7689;53.612;-2.416;2022-07-29T07:07:05;14.70;99.90
15178;DHT22;7689;53.612;-2.416;2022-07-29T07:09:31;14.70;99.90
15178;DHT22;7689;53.612;-2.416;2022-07-29T07:11:57;14.80;99.90
15178;DHT22;7689;53.612;-2.416;2022-07-29T07:14:22;14.80;99.90
15178;DHT22;7689;53.612;-2.416;2022-07-29T07:16:48;14.80;99.90
15178;DHT22;7689;53.612;-2.416;2022-07-29T07:19:13;15.00;99.90
15178;DHT22;7689;53.612;-2.416;2022-07-29T07:21:39;15.00;99.90
15178;DHT22;7689;53.612;-2.416;2022-07-29T07:24:05;16.40;99.90
15178;DHT22;7689;53.612;-2.416;2022-07-29T07:26:31;15.30;99.90
15178;DHT22;7689;53.612;-2.416;2022-07-29T07:28:56;15.30;99.90
15178;DHT22;7689;53.612;-2.416;2022-07-29T07:31:22;15.60;99.90
15178;DHT22;7689;53.612;-2.416;2022-07-29T07:33:48;15.60;99.90
15178;DHT22;7689;53.612;-2.416;2022-07-29T07:36:14;15.90;99.90
15178;DHT22;7689;53.612;-2.416;2022-07-29T07:38:39;15.90;99.90
15178;DHT22;7689;53.612;-2.416;2022-07-29T07:41:05;16.10;99.90
15178;DHT22;7689;53.612;-2.416;2022-07-29T07:43:30;16.30;99.90
15178;DHT22;7689;53.612;-2.416;2022-07-29T07:45:57;16.20;99.90
15178;DHT22;7689;53.612;-2.416;2022-07-29T07:48:23;16.10;99.90
15178;DHT22;7689;53.612;-2.416;2022-07-29T07:50:49;16.10;99.90
15178;DHT22;7689;53.612;-2.416;2022-07-29T07:53:15;16.20;99.90
15178;DHT22;7689;53.612;-2.416;2022-07-29T07:55:42;16.20;99.90
15178;DHT22;7689;53.612;-2.416;2022-07-29T07:58:08;16.20;99.90
15178;DHT22;7689;53.612;-2.416;2022-07-29T08:00:34;16.30;99.90
15178;DHT22;7689;53.612;-2.416;2022-07-29T08:03:00;16.40;99.90
15178;DHT22;7689;53.612;-2.416;2022-07-29T08:05:26;16.40;99.90
15178;DHT22;7689;53.612;-2.416;2022-07-29T08:07:51;16.40;99.90
15178;DHT22;7689;53.612;-2.416;2022-07-29T08:10:18;16.40;99.90
15178;DHT22;7689;53.612;-2.416;2022-07-29T08:13:05;16.40;99.90
15178;DHT22;7689;53.612;-2.416;2022-07-29T08:15:32;16.30;99.90
15178;DHT22;7689;53.612;-2.416;2022-07-29T08:17:57;16.20;99.90
15178;DHT22;7689;53.612;-2.416;2022-07-29T08:20:23;16.30;99.90
15178;DHT22;7689;53.612;-2.416;2022-07-29T08:22:49;16.30;99.90
15178;DHT22;7689;53.612;-2.416;2022-07-29T08:25:15;16.30;99.90
15178;DHT22;7689;53.612;-2.416;2022-07-29T08:27:41;16.50;99.90
15178;DHT22;7689;53.612;-2.416;2022-07-29T08:30:07;16.50;99.90
15178;DHT22;7689;53.612;-2.416;2022-07-29T08:32:32;16.60;99.90
15178;DHT22;7689;53.612;-2.416;2022-07-29T08:34:58;16.80;99.90
15178;DHT22;7689;53.612;-2.416;2022-07-29T08:37:24;16.90;99.90
15178;DHT22;7689;53.612;-2.416;2022-07-29T08:39:49;17.10;99.90
15178;DHT22;7689;53.612;-2.416;2022-07-29T08:42:15;17.20;99.90
15178;DHT22;7689;53.612;-2.416;2022-07-29T08:44:42;17.20;99.90
15178;DHT22;7689;53.612;-2.416;2022-07-29T08:47:08;17.30;99.90
15178;DHT22;7689;53.612;-2.416;2022-07-29T08:49:35;17.30;99.90
15178;DHT22;7689;53.612;-2.416;2022-07-29T08:52:02;17.40;99.90
15178;DHT22;7689;53.612;-2.416;2022-07-29T08:54:28;17.70;99.90
15178;DHT22;7689;53.612;-2.416;2022-07-29T08:56:54;17.70;99.90
15178;DHT22;7689;53.612;-2.416;2022-07-29T08:59:22;17.90;99.90
15178;DHT22;7689;53.612;-2.416;2022-07-29T09:01:51;18.10;99.90
15178;DHT22;7689;53.612;-2.416;2022-07-29T09:04:18;18.40;99.90
15178;DHT22;7689;53.612;-2.416;2022-07-29T09:06:48;18.30;99.90
15178;DHT22;7689;53.612;-2.416;2022-07-29T09:09:14;18.40;99.90
15178;DHT22;7689;53.612;-2.416;2022-07-29T09:11:41;18.70;99.90
15178;DHT22;7689;53.612;-2.416;2022-07-29T09:14:07;19.00;99.90
15178;DHT22;7689;53.612;-2.416;2022-07-29T09:16:54;19.00;99.90
15178;DHT22;7689;53.612;-2.416;2022-07-29T09:21:47;18.60;99.90
15178;DHT22;7689;53.612;-2.416;2022-07-29T09:24:35;18.60;99.90
15178;DHT22;7689;53.612;-2.416;2022-07-29T09:27:02;18.50;99.90
15178;DHT22;7689;53.612;-2.416;2022-07-29T09:29:28;18.70;99.90
15178;DHT22;7689;53.612;-2.416;2022-07-29T09:31:55;19.00;99.90
15178;DHT22;7689;53.612;-2.416;2022-07-29T09:34:28;19.40;99.90
15178;DHT22;7689;53.612;-2.416;2022-07-29T09:36:56;19.50;99.90
15178;DHT22;7689;53.612;-2.416;2022-07-29T09:39:39;19.40;99.90
15178;DHT22;7689;53.612;-2.416;2022-07-29T09:42:12;19.40;99.90
15178;DHT22;7689;53.612;-2.416;2022-07-29T09:44:56;19.50;99.90
15178;DHT22;7689;53.612;-2.416;2022-07-29T09:47:22;19.70;99.90
15178;DHT22;7689;53.612;-2.416;2022-07-29T09:50:05;19.90;99.90
15178;DHT22;7689;53.612;-2.416;2022-07-29T09:52:31;19.90;99.90
15178;DHT22;7689;53.612;-2.416;2022-07-29T09:55:07;20.00;99.90
15178;DHT22;7689;53.612;-2.416;2022-07-29T09:57:33;20.00;99.90
15178;DHT22;7689;53.612;-2.416;2022-07-29T10:02:38;20.30;99.90
15178;DHT22;7689;53.612;-2.416;2022-07-29T10:05:06;20.30;99.90
15178;DHT22;7689;53.612;-2.416;2022-07-29T10:07:50;20.30;99.90
15178;DHT22;7689;53.612;-2.416;2022-07-29T10:10:33;20.20;99.90
15178;DHT22;7689;53.612;-2.416;2022-07-29T10:13:02;19.90;99.90
15178;DHT22;7689;53.612;-2.416;2022-07-29T10:15:31;20.00;99.90
15178;DHT22;7689;53.612;-2.416;2022-07-29T10:17:58;20.40;99.90
15178;DHT22;7689;53.612;-2.416;2022-07-29T10:20:26;20.50;99.90
15178;DHT22;7689;53.612;-2.416;2022-07-29T10:22:52;20.50;99.90
15178;DHT22;7689;53.612;-2.416;2022-07-29T10:25:18;20.20;99.90
15178;DHT22;7689;53.612;-2.416;2022-07-29T10:27:45;20.20;99.90
15178;DHT22;7689;53.612;-2.416;2022-07-29T10:30:13;20.30;99.90
15178;DHT22;7689;53.612;-2.416;2022-07-29T10:40:57;20.70;99.90
15178;DHT22;7689;53.612;-2.416;2022-07-29T10:43:45;21.00;99.90
15178;DHT22;7689;53.612;-2.416;2022-07-29T10:46:11;21.10;99.90
15178;DHT22;7689;53.612;-2.416;2022-07-29T10:49:12;20.80;99.90
15178;DHT22;7689;53.612;-2.416;2022-07-29T10:51:56;20.80;99.90
15178;DHT22;7689;53.612;-2.416;2022-07-29T10:54:42;21.00;99.90
15178;DHT22;7689;53.612;-2.416;2022-07-29T11:07:22;20.90;99.90
15178;DHT22;7689;53.612;-2.416;2022-07-29T11:15:03;20.70;99.90
15178;DHT22;7689;53.612;-2.416;2022-07-29T11:20:44;21.30;99.90
15178;DHT22;7689;53.612;-2.416;2022-07-29T11:23:23;21.10;99.90
15178;DHT22;7689;53.612;-2.416;2022-07-29T11:29:20;21.70;99.90
15178;DHT22;7689;53.612;-2.416;2022-07-29T11:31:50;21.30;99.90
15178;DHT22;7689;53.612;-2.416;2022-07-29T11:34:25;21.50;99.90
15178;DHT22;7689;53.612;-2.416;2022-07-29T11:39:33;22.20;99.90
15178;DHT22;7689;53.612;-2.416;2022-07-29T11:47:50;22.00;99.90
15178;DHT22;7689;53.612;-2.416;2022-07-29T11:50:36;22.00;99.90
15178;DHT22;7689;53.612;-2.416;2022-07-29T11:53:10;22.30;99.90
15178;DHT22;7689;53.612;-2.416;2022-07-29T11:55:40;22.50;99.90
15178;DHT22;7689;53.612;-2.416;2022-07-29T11:58:07;22.60;99.90
15178;DHT22;7689;53.612;-2.416;2022-07-29T12:00:40;22.40;99.90
15178;DHT22;7689;53.612;-2.416;2022-07-29T12:03:09;22.40;99.90
15178;DHT22;7689;53.612;-2.416;2022-07-29T12:05:43;22.60;99.90
15178;DHT22;7689;53.612;-2.416;2022-07-29T12:08:18;22.30;99.90
15178;DHT22;7689;53.612;-2.416;2022-07-29T12:10:46;21.90;99.90
15178;DHT22;7689;53.612;-2.416;2022-07-29T12:13:13;22.10;99.90
15178;DHT22;7689;53.612;-2.416;2022-07-29T12:15:40;22.20;99.90
15178;DHT22;7689;53.612;-2.416;2022-07-29T12:18:13;22.00;99.90
15178;DHT22;7689;53.612;-2.416;2022-07-29T12:20:39;22.30;99.90
15178;DHT22;7689;53.612;-2.416;2022-07-29T12:23:07;22.60;99.90
15178;DHT22;7689;53.612;-2.416;2022-07-29T12:25:34;23.00;99.90
15178;DHT22;7689;53.612;-2.416;2022-07-29T12:28:06;23.10;99.90
15178;DHT22;7689;53.612;-2.416;2022-07-29T12:30:41;23.40;99.90
15178;DHT22;7689;53.612;-2.416;2022-07-29T12:33:27;23.40;99.90
15178;DHT22;7689;53.612;-2.416;2022-07-29T12:35:56;23.50;99.90
15178;DHT22;7689;53.612;-2.416;2022-07-29T12:38:22;23.30;99.90
15178;DHT22;7689;53.612;-2.416;2022-07-29T12:40:48;23.40;99.90
15178;DHT22;7689;53.612;-2.416;2022-07-29T12:43:18;23.50;99.90
15178;DHT22;7689;53.612;-2.416;2022-07-29T12:45:47;23.70;99.90
15178;DHT22;7689;53.612;-2.416;2022-07-29T12:48:13;23.80;99.90
15178;DHT22;7689;53.612;-2.416;2022-07-29T12:50:59;23.90;99.90
15178;DHT22;7689;53.612;-2.416;2022-07-29T12:53:25;23.80;99.90
15178;DHT22;7689;53.612;-2.416;2022-07-29T12:55:53;23.50;99.90
15178;DHT22;7689;53.612;-2.416;2022-07-29T13:01:17;23.10;99.90
15178;DHT22;7689;53.612;-2.416;2022-07-29T13:03:57;23.20;99.90
15178;DHT22;7689;53.612;-2.416;2022-07-29T13:06:42;23.50;99.90
15178;DHT22;7689;53.612;-2.416;2022-07-29T13:11:59;23.80;99.90
15178;DHT22;7689;53.612;-2.416;2022-07-29T13:17:08;22.40;99.90
15178;DHT22;7689;53.612;-2.416;2022-07-29T13:19:48;22.40;99.90
15178;DHT22;7689;53.612;-2.416;2022-07-29T13:22:22;22.00;99.90
15178;DHT22;7689;53.612;-2.416;2022-07-29T13:24:56;22.00;99.90
15178;DHT22;7689;53.612;-2.416;2022-07-29T13:27:24;22.30;99.90
15178;DHT22;7689;53.612;-2.416;2022-07-29T13:29:50;22.20;99.90
15178;DHT22;7689;53.612;-2.416;2022-07-29T13:32:20;22.20;99.90
15178;DHT22;7689;53.612;-2.416;2022-07-29T13:34:46;22.30;99.90
15178;DHT22;7689;53.612;-2.416;2022-07-29T13:37:12;22.60;99.90
15178;DHT22;7689;53.612;-2.416;2022-07-29T13:39:37;22.50;99.90
15178;DHT22;7689;53.612;-2.416;2022-07-29T13:42:07;22.60;99.90
15178;DHT22;7689;53.612;-2.416;2022-07-29T13:44:34;22.50;99.90
15178;DHT22;7689;53.612;-2.416;2022-07-29T13:46:59;22.70;99.90
15178;DHT22;7689;53.612;-2.416;2022-07-29T13:49:26;22.80;99.90
15178;DHT22;7689;53.612;-2.416;2022-07-29T13:51:53;23.00;99.90
15178;DHT22;7689;53.612;-2.416;2022-07-29T13:54:19;23.30;99.90
15178;DHT22;7689;53.612;-2.416;2022-07-29T13:56:45;23.30;99.90
15178;DHT22;7689;53.612;-2.416;2022-07-29T13:59:10;23.30;99.90
15178;DHT22;7689;53.612;-2.416;2022-07-29T14:01:37;23.20;99.90
15178;DHT22;7689;53.612;-2.416;2022-07-29T14:04:02;23.30;99.90
15178;DHT22;7689;53.612;-2.416;2022-07-29T14:06:28;23.20;99.90
15178;DHT22;7689;53.612;-2.416;2022-07-29T14:08:54;23.40;99.90
15178;DHT22;7689;53.612;-2.416;2022-07-29T14:11:20;23.60;99.90
15178;DHT22;7689;53.612;-2.416;2022-07-29T14:13:46;23.40;99.90
15178;DHT22;7689;53.612;-2.416;2022-07-29T14:16:11;23.30;99.90
15178;DHT22;7689;53.612;-2.416;2022-07-29T14:18:37;23.60;99.90
15178;DHT22;7689;53.612;-2.416;2022-07-29T14:21:03;23.50;99.90
15178;DHT22;7689;53.612;-2.416;2022-07-29T14:23:28;23.70;99.90
15178;DHT22;7689;53.612;-2.416;2022-07-29T14:25:54;23.80;99.90
15178;DHT22;7689;53.612;-2.416;2022-07-29T14:28:20;23.70;99.90
15178;DHT22;7689;53.612;-2.416;2022-07-29T14:30:46;23.80;99.90
15178;DHT22;7689;53.612;-2.416;2022-07-29T14:33:12;23.50;99.90
15178;DHT22;7689;53.612;-2.416;2022-07-29T14:35:37;23.30;99.90
15178;DHT22;7689;53.612;-2.416;2022-07-29T14:38:03;22.70;99.90
15178;DHT22;7689;53.612;-2.416;2022-07-29T14:40:29;22.60;99.90
15178;DHT22;7689;53.612;-2.416;2022-07-29T14:42:55;22.70;99.90
15178;DHT22;7689;53.612;-2.416;2022-07-29T14:45:20;22.60;99.90
15178;DHT22;7689;53.612;-2.416;2022-07-29T14:47:46;22.60;99.90
15178;DHT22;7689;53.612;-2.416;2022-07-29T14:50:12;22.70;99.90
15178;DHT22;7689;53.612;-2.416;2022-07-29T14:52:38;22.90;99.90
15178;DHT22;7689;53.612;-2.416;2022-07-29T14:55:05;23.10;99.90
15178;DHT22;7689;53.612;-2.416;2022-07-29T14:57:30;22.80;99.90
15178;DHT22;7689;53.612;-2.416;2022-07-29T14:59:56;22.80;99.90
15178;DHT22;7689;53.612;-2.416;2022-07-29T15:02:22;22.90;99.90
15178;DHT22;7689;53.612;-2.416;2022-07-29T15:04:48;23.00;99.90
15178;DHT22;7689;53.612;-2.416;2022-07-29T15:07:14;23.00;99.90
15178;DHT22;7689;53.612;-2.416;2022-07-29T15:09:41;23.10;99.90
15178;DHT22;7689;53.612;-2.416;2022-07-29T15:12:07;23.10;99.90
15178;DHT22;7689;53.612;-2.416;2022-07-29T15:14:33;22.90;99.90
15178;DHT22;7689;53.612;-2.416;2022-07-29T15:16:59;22.70;99.90
15178;DHT22;7689;53.612;-2.416;2022-07-29T15:19:25;22.70;99.90
15178;DHT22;7689;53.612;-2.416;2022-07-29T15:21:50;22.80;99.90
15178;DHT22;7689;53.612;-2.416;2022-07-29T15:24:16;22.80;99.90
15178;DHT22;7689;53.612;-2.416;2022-07-29T15:26:42;22.90;99.90
15178;DHT22;7689;53.612;-2.416;2022-07-29T15:29:08;22.70;99.90
15178;DHT22;7689;53.612;-2.416;2022-07-29T15:31:34;22.70;99.90
15178;DHT22;7689;53.612;-2.416;2022-07-29T15:33:59;22.70;99.90
15178;DHT22;7689;53.612;-2.416;2022-07-29T15:36:25;22.60;99.90
15178;DHT22;7689;53.612;-2.416;2022-07-29T15:38:54;22.40;99.90
15178;DHT22;7689;53.612;-2.416;2022-07-29T15:41:20;22.40;99.90
15178;DHT22;7689;53.612;-2.416;2022-07-29T15:43:47;22.30;99.90
15178;DHT22;7689;53.612;-2.416;2022-07-29T15:46:15;22.30;99.90
15178;DHT22;7689;53.612;-2.416;2022-07-29T15:49:00;22.30;99.90
15178;DHT22;7689;53.612;-2.416;2022-07-29T15:51:26;22.30;99.90
15178;DHT22;7689;53.612;-2.416;2022-07-29T15:53:52;22.30;99.90
15178;DHT22;7689;53.612;-2.416;2022-07-29T15:56:17;22.30;99.90
15178;DHT22;7689;53.612;-2.416;2022-07-29T15:58:43;22.00;99.90
15178;DHT22;7689;53.612;-2.416;2022-07-29T16:01:09;22.00;99.90
15178;DHT22;7689;53.612;-2.416;2022-07-29T16:03:35;21.90;99.90
15178;DHT22;7689;53.612;-2.416;2022-07-29T16:06:01;21.90;99.90
15178;DHT22;7689;53.612;-2.416;2022-07-29T16:08:27;22.10;99.90
15178;DHT22;7689;53.612;-2.416;2022-07-29T16:10:52;22.10;99.90
15178;DHT22;7689;53.612;-2.416;2022-07-29T16:13:18;22.20;99.90
15178;DHT22;7689;53.612;-2.416;2022-07-29T16:15:44;22.20;99.90
15178;DHT22;7689;53.612;-2.416;2022-07-29T16:18:10;22.20;99.90
15178;DHT22;7689;53.612;-2.416;2022-07-29T16:20:36;22.30;99.90
15178;DHT22;7689;53.612;-2.416;2022-07-29T16:23:02;22.40;99.90
15178;DHT22;7689;53.612;-2.416;2022-07-29T16:25:28;22.40;99.90
15178;DHT22;7689;53.612;-2.416;2022-07-29T16:27:53;22.30;99.90
15178;DHT22;7689;53.612;-2.416;2022-07-29T16:30:19;22.30;99.90
15178;DHT22;7689;53.612;-2.416;2022-07-29T16:32:45;22.20;99.90
15178;DHT22;7689;53.612;-2.416;2022-07-29T16:35:10;22.20;99.90